Gaylord, MI (49735)

9:12 PM EST op 28 november 2014 (GMT -0500)
Castlewood Drive | Change Station
CLOSE
Current Station
Persoonlijk weerstation
Location: Gaylord, MI
Geometrische hoogte: 1315 ft
Nabije weerstations

Hoogte 1315 ft 44.99 °N, 84.66 °W | Updated 1 minute ago

Sneeuw
Sneeuw
19.6 °F
Voelt als 20 °F
N
0.0
Wind Variabel Wind van ZO
Gusts 0.0 mijl/u

Vandaag
Hoog -- | Laag -- °F
--% Kans op neerslag
Gisteren
Hoog -- | Laag -- °F
Precip. -- inches
7:53 AM 4:59 PM
Wassende halvemaan, 46% visible
Druk 30.08 inches
Zicht 5.0 mijlen
Wolken Licht bewolkt 4500 ft
Merendeels bewolkt 5000 ft
Geheel bewolkt 7000 ft
Gevoelstemperatuur 20 °F
Dauwpunt 18 °F
Vochtigheid 92%
Neerslag 0.00 inches
Dikte sneeuw Niet beschikbaar.
UV 0.0 van de 12
Pollen .10 van de 12
Luchtkwaliteit Niet beschikbaar.
Flu Activity Niet beschikbaar.
METAR KGLR 290153Z AUTO 16007KT 5SM -SN BR SCT045 BKN050 OVC070 M07/M09 A3000 RMK AO2 SNE00B18 SLP184 P0000 T10671089

More Conditions Fewer Conditions

Druk 30.08 inches
Zicht 5.0 mijlen
Wolken Licht bewolkt 4500 ft
Merendeels bewolkt 5000 ft
Geheel bewolkt 7000 ft
Gevoelstemperatuur 20 °F
Dauwpunt 18 °F
Vochtigheid 92%
Neerslag 0.00 inches
Dikte sneeuw Niet beschikbaar.
UV 0.0 van de 12
Pollen .10 van de 12
Luchtkwaliteit Niet beschikbaar.
Flu Activity Niet beschikbaar.
METAR KGLR 290153Z AUTO 16007KT 5SM -SN BR SCT045 BKN050 OVC070 M07/M09 A3000 RMK AO2 SNE00B18 SLP184 P0000 T10671089

More Conditions Fewer Conditions

Nowcast | as of 9:00 PM EST on November 28, 2014

At 10 PM...occasional snow. Temperature 21. South winds 9 mph. At 12 am...occasional snow. Temperature 22. South winds 9 mph. At 2 am...snow likely. Temperature 23. South winds 9 mph. At 4 am...cloudy. Chance of light freezing drizzle and snow. Temperature 24. South winds 10 mph.

×

10-Day Weather Forecast

Almanac

Astronomie

Nov. 28, 2014 Opkomst Ondergang
Werkelijke tijd
Burgerlijke schemering
Nautische schemering
Astronomische schemering
Maan
Golflengte van het zichtbare licht
Daglengte
Tomorrow will be .
, % of the Moon is Illuminated

Extremen vandaag

State Highs State Lows

Community

WunderPhotos

Upload Photos

1,774,374 foto’s ge-upload!

WunderBlogs® & News

Nearby

Luchtkwaliteit

  Luchtkwaliteit LK-index Verontreinigende stof
Not available.

Dikte sneeuw

Station Depth Geometrische hoogte

Aardbevingen

Stad Distance Mag. Time & Date
Minimum magnitude displayed is 2.5.

Watertemperatuur langs de kust

Plaats Temperatuur

Nabije weerstations